sensor_id;sensor_type;location;lat;lon;timestamp;P1;durP1;ratioP1;P2;durP2;ratioP2
10489;SDS011;35569;48.402;10.670;2023-06-22T00:00:42;5.00;;;4.77;;
10489;SDS011;35569;48.402;10.670;2023-06-22T00:01:15;5.07;;;4.77;;
10489;SDS011;35569;48.402;10.670;2023-06-22T00:01:48;5.30;;;4.97;;
10489;SDS011;35569;48.402;10.670;2023-06-22T00:02:23;5.10;;;4.63;;
10489;SDS011;35569;48.402;10.670;2023-06-22T00:02:55;5.77;;;5.37;;
10489;SDS011;35569;48.402;10.670;2023-06-22T00:03:28;4.50;;;4.30;;
10489;SDS011;35569;48.402;10.670;2023-06-22T00:04:03;5.20;;;4.90;;
10489;SDS011;35569;48.402;10.670;2023-06-22T00:04:36;5.57;;;5.27;;
10489;SDS011;35569;48.402;10.670;2023-06-22T00:05:08;5.53;;;5.17;;
10489;SDS011;35569;48.402;10.670;2023-06-22T00:05:43;5.30;;;5.00;;
10489;SDS011;35569;48.402;10.670;2023-06-22T00:06:16;4.87;;;4.57;;
10489;SDS011;35569;48.402;10.670;2023-06-22T00:06:48;4.70;;;4.40;;
10489;SDS011;35569;48.402;10.670;2023-06-22T00:07:24;5.23;;;5.00;;
10489;SDS011;35569;48.402;10.670;2023-06-22T00:08:01;5.20;;;5.00;;
10489;SDS011;35569;48.402;10.670;2023-06-22T00:08:35;5.47;;;5.17;;
10489;SDS011;35569;48.402;10.670;2023-06-22T00:09:10;5.43;;;5.00;;
10489;SDS011;35569;48.402;10.670;2023-06-22T00:09:42;4.70;;;4.27;;
10489;SDS011;35569;48.402;10.670;2023-06-22T00:10:14;5.33;;;5.00;;
10489;SDS011;35569;48.402;10.670;2023-06-22T00:10:49;5.00;;;4.70;;
10489;SDS011;35569;48.402;10.670;2023-06-22T00:11:22;5.17;;;4.87;;
10489;SDS011;35569;48.402;10.670;2023-06-22T00:11:55;5.20;;;4.80;;
10489;SDS011;35569;48.402;10.670;2023-06-22T00:12:30;4.57;;;4.30;;
10489;SDS011;35569;48.402;10.670;2023-06-22T00:13:03;4.77;;;4.57;;
10489;SDS011;35569;48.402;10.670;2023-06-22T00:13:36;4.83;;;4.63;;
10489;SDS011;35569;48.402;10.670;2023-06-22T00:14:12;5.43;;;5.13;;
10489;SDS011;35569;48.402;10.670;2023-06-22T00:14:44;4.60;;;4.30;;
10489;SDS011;35569;48.402;10.670;2023-06-22T00:15:16;4.80;;;4.50;;
10489;SDS011;35569;48.402;10.670;2023-06-22T00:15:51;4.77;;;4.47;;
10489;SDS011;35569;48.402;10.670;2023-06-22T00:16:24;4.37;;;4.17;;
10489;SDS011;35569;48.402;10.670;2023-06-22T00:16:59;5.60;;;5.10;;
10489;SDS011;35569;48.402;10.670;2023-06-22T00:17:31;5.00;;;4.70;;
10489;SDS011;35569;48.402;10.670;2023-06-22T00:18:04;5.60;;;5.30;;
10489;SDS011;35569;48.402;10.670;2023-06-22T00:18:39;4.70;;;4.30;;
10489;SDS011;35569;48.402;10.670;2023-06-22T00:19:18;5.20;;;4.80;;
10489;SDS011;35569;48.402;10.670;2023-06-22T00:19:53;5.23;;;5.03;;
10489;SDS011;35569;48.402;10.670;2023-06-22T00:20:26;4.80;;;4.60;;
10489;SDS011;35569;48.402;10.670;2023-06-22T00:21:00;5.00;;;4.70;;
10489;SDS011;35569;48.402;10.670;2023-06-22T00:21:35;5.03;;;4.70;;
10489;SDS011;35569;48.402;10.670;2023-06-22T00:22:09;5.20;;;4.90;;
10489;SDS011;35569;48.402;10.670;2023-06-22T00:22:41;5.93;;;5.43;;
10489;SDS011;35569;48.402;10.670;2023-06-22T00:23:19;5.00;;;4.70;;
10489;SDS011;35569;48.402;10.670;2023-06-22T00:23:51;5.13;;;4.83;;
10489;SDS011;35569;48.402;10.670;2023-06-22T00:24:24;4.80;;;4.60;;
10489;SDS011;35569;48.402;10.670;2023-06-22T00:24:59;5.20;;;4.90;;
10489;SDS011;35569;48.402;10.670;2023-06-22T00:25:31;4.80;;;4.57;;
10489;SDS011;35569;48.402;10.670;2023-06-22T00:26:04;5.27;;;4.97;;
10489;SDS011;35569;48.402;10.670;2023-06-22T00:26:39;4.63;;;4.33;;
10489;SDS011;35569;48.402;10.670;2023-06-22T00:27:13;4.90;;;4.70;;
10489;SDS011;35569;48.402;10.670;2023-06-22T00:27:46;4.97;;;4.77;;
10489;SDS011;35569;48.402;10.670;2023-06-22T00:28:18;4.40;;;4.20;;
10489;SDS011;35569;48.402;10.670;2023-06-22T00:28:53;4.93;;;4.70;;
10489;SDS011;35569;48.402;10.670;2023-06-22T00:29:27;5.00;;;4.70;;
10489;SDS011;35569;48.402;10.670;2023-06-22T00:30:00;4.80;;;4.57;;
10489;SDS011;35569;48.402;10.670;2023-06-22T00:30:35;4.80;;;4.40;;
10489;SDS011;35569;48.402;10.670;2023-06-22T00:31:08;4.63;;;4.33;;
10489;SDS011;35569;48.402;10.670;2023-06-22T00:31:43;4.90;;;4.60;;
10489;SDS011;35569;48.402;10.670;2023-06-22T00:32:15;4.87;;;4.57;;
10489;SDS011;35569;48.402;10.670;2023-06-22T00:32:51;4.90;;;4.70;;
10489;SDS011;35569;48.402;10.670;2023-06-22T00:33:26;4.90;;;4.37;;
10489;SDS011;35569;48.402;10.670;2023-06-22T00:34:00;4.33;;;4.13;;
10489;SDS011;35569;48.402;10.670;2023-06-22T00:34:32;4.80;;;4.60;;
10489;SDS011;35569;48.402;10.670;2023-06-22T00:35:07;4.97;;;4.60;;
10489;SDS011;35569;48.402;10.670;2023-06-22T00:35:40;5.20;;;4.90;;
10489;SDS011;35569;48.402;10.670;2023-06-22T00:36:13;5.00;;;4.80;;
10489;SDS011;35569;48.402;10.670;2023-06-22T00:36:49;4.87;;;4.57;;
10489;SDS011;35569;48.402;10.670;2023-06-22T00:37:23;4.60;;;4.30;;
10489;SDS011;35569;48.402;10.670;2023-06-22T00:37:58;5.17;;;4.87;;
10489;SDS011;35569;48.402;10.670;2023-06-22T00:38:37;4.70;;;4.47;;
10489;SDS011;35569;48.402;10.670;2023-06-22T00:39:12;4.90;;;4.70;;
10489;SDS011;35569;48.402;10.670;2023-06-22T00:39:45;5.33;;;5.03;;
10489;SDS011;35569;48.402;10.670;2023-06-22T00:40:20;4.50;;;4.30;;
10489;SDS011;35569;48.402;10.670;2023-06-22T00:40:53;4.70;;;4.40;;
10489;SDS011;35569;48.402;10.670;2023-06-22T00:41:25;4.93;;;4.70;;
10489;SDS011;35569;48.402;10.670;2023-06-22T00:42:01;4.77;;;4.47;;
10489;SDS011;35569;48.402;10.670;2023-06-22T00:42:34;4.70;;;4.47;;
10489;SDS011;35569;48.402;10.670;2023-06-22T00:43:07;6.60;;;4.93;;
10489;SDS011;35569;48.402;10.670;2023-06-22T00:43:42;4.57;;;4.37;;
10489;SDS011;35569;48.402;10.670;2023-06-22T00:44:14;4.93;;;4.73;;
10489;SDS011;35569;48.402;10.670;2023-06-22T00:44:47;5.17;;;4.87;;
10489;SDS011;35569;48.402;10.670;2023-06-22T00:45:22;4.67;;;4.47;;
10489;SDS011;35569;48.402;10.670;2023-06-22T00:45:55;4.90;;;4.53;;
10489;SDS011;35569;48.402;10.670;2023-06-22T00:46:28;5.10;;;4.80;;
10489;SDS011;35569;48.402;10.670;2023-06-22T00:47:04;4.70;;;4.50;;
10489;SDS011;35569;48.402;10.670;2023-06-22T00:47:38;4.33;;;4.23;;
10489;SDS011;35569;48.402;10.670;2023-06-22T00:48:10;5.00;;;4.67;;
10489;SDS011;35569;48.402;10.670;2023-06-22T00:48:46;5.03;;;4.83;;
10489;SDS011;35569;48.402;10.670;2023-06-22T00:49:19;4.27;;;4.10;;
10489;SDS011;35569;48.402;10.670;2023-06-22T00:49:51;5.03;;;4.73;;
10489;SDS011;35569;48.402;10.670;2023-06-22T00:50:27;5.40;;;5.00;;
10489;SDS011;35569;48.402;10.670;2023-06-22T00:51:05;5.43;;;5.03;;
10489;SDS011;35569;48.402;10.670;2023-06-22T00:51:40;4.60;;;4.40;;
10489;SDS011;35569;48.402;10.670;2023-06-22T00:52:17;4.27;;;4.07;;
10489;SDS011;35569;48.402;10.670;2023-06-22T00:52:54;5.00;;;4.80;;
10489;SDS011;35569;48.402;10.670;2023-06-22T00:53:28;4.80;;;4.57;;
10489;SDS011;35569;48.402;10.670;2023-06-22T00:54:09;4.70;;;4.40;;
10489;SDS011;35569;48.402;10.670;2023-06-22T00:54:42;6.37;;;4.70;;
10489;SDS011;35569;48.402;10.670;2023-06-22T00:55:17;5.60;;;5.20;;
10489;SDS011;35569;48.402;10.670;2023-06-22T00:55:52;4.87;;;4.57;;
10489;SDS011;35569;48.402;10.670;2023-06-22T00:56:25;4.87;;;4.57;;
10489;SDS011;35569;48.402;10.670;2023-06-22T00:56:57;5.30;;;4.80;;
10489;SDS011;35569;48.402;10.670;2023-06-22T00:57:32;4.50;;;4.30;;
10489;SDS011;35569;48.402;10.670;2023-06-22T00:58:09;4.63;;;4.33;;
10489;SDS011;35569;48.402;10.670;2023-06-22T00:58:42;4.20;;;4.00;;
10489;SDS011;35569;48.402;10.670;2023-06-22T00:59:21;4.53;;;4.33;;
10489;SDS011;35569;48.402;10.670;2023-06-22T00:59:53;4.37;;;4.10;;
10489;SDS011;35569;48.402;10.670;2023-06-22T01:00:26;4.80;;;4.60;;
10489;SDS011;35569;48.402;10.670;2023-06-22T01:00:59;5.23;;;4.93;;
10489;SDS011;35569;48.402;10.670;2023-06-22T01:01:34;5.20;;;4.90;;
10489;SDS011;35569;48.402;10.670;2023-06-22T01:02:13;5.40;;;5.00;;
10489;SDS011;35569;48.402;10.670;2023-06-22T01:02:45;4.33;;;4.13;;
10489;SDS011;35569;48.402;10.670;2023-06-22T01:03:23;5.13;;;4.87;;
10489;SDS011;35569;48.402;10.670;2023-06-22T01:03:55;5.40;;;5.10;;
10489;SDS011;35569;48.402;10.670;2023-06-22T01:04:34;5.47;;;5.07;;
10489;SDS011;35569;48.402;10.670;2023-06-22T01:05:11;5.20;;;4.90;;
10489;SDS011;35569;48.402;10.670;2023-06-22T01:05:45;4.50;;;4.30;;
10489;SDS011;35569;48.402;10.670;2023-06-22T01:06:21;4.53;;;4.30;;
10489;SDS011;35569;48.402;10.670;2023-06-22T01:07:00;4.80;;;4.60;;
10489;SDS011;35569;48.402;10.670;2023-06-22T01:07:40;5.30;;;5.00;;
10489;SDS011;35569;48.402;10.670;2023-06-22T01:08:24;4.47;;;4.27;;
10489;SDS011;35569;48.402;10.670;2023-06-22T01:09:02;4.53;;;4.23;;
10489;SDS011;35569;48.402;10.670;2023-06-22T01:09:49;5.20;;;4.90;;
10489;SDS011;35569;48.402;10.670;2023-06-22T01:10:25;5.07;;;4.87;;
10489;SDS011;35569;48.402;10.670;2023-06-22T01:11:04;4.30;;;4.17;;
10489;SDS011;35569;48.402;10.670;2023-06-22T01:11:41;5.07;;;4.80;;
10489;SDS011;35569;48.402;10.670;2023-06-22T01:12:17;4.60;;;4.40;;
10489;SDS011;35569;48.402;10.670;2023-06-22T01:12:51;4.70;;;4.50;;
10489;SDS011;35569;48.402;10.670;2023-06-22T01:13:29;4.70;;;4.50;;
10489;SDS011;35569;48.402;10.670;2023-06-22T01:14:07;5.93;;;5.53;;
10489;SDS011;35569;48.402;10.670;2023-06-22T01:14:47;4.90;;;4.60;;
10489;SDS011;35569;48.402;10.670;2023-06-22T01:15:25;6.30;;;5.80;;
10489;SDS011;35569;48.402;10.670;2023-06-22T01:16:02;5.07;;;4.87;;
10489;SDS011;35569;48.402;10.670;2023-06-22T01:16:40;5.80;;;5.33;;
10489;SDS011;35569;48.402;10.670;2023-06-22T01:17:14;5.10;;;4.90;;
10489;SDS011;35569;48.402;10.670;2023-06-22T01:17:48;4.73;;;4.53;;
10489;SDS011;35569;48.402;10.670;2023-06-22T01:18:24;4.90;;;4.60;;
10489;SDS011;35569;48.402;10.670;2023-06-22T01:19:01;4.97;;;4.70;;
10489;SDS011;35569;48.402;10.670;2023-06-22T01:19:49;4.70;;;4.50;;
10489;SDS011;35569;48.402;10.670;2023-06-22T01:20:26;5.07;;;4.70;;
10489;SDS011;35569;48.402;10.670;2023-06-22T01:21:00;4.73;;;4.53;;
10489;SDS011;35569;48.402;10.670;2023-06-22T01:21:39;5.43;;;5.13;;
10489;SDS011;35569;48.402;10.670;2023-06-22T01:22:12;4.80;;;4.60;;
10489;SDS011;35569;48.402;10.670;2023-06-22T01:22:52;5.80;;;5.30;;
10489;SDS011;35569;48.402;10.670;2023-06-22T01:23:37;5.27;;;4.97;;
10489;SDS011;35569;48.402;10.670;2023-06-22T01:24:22;5.33;;;4.93;;
10489;SDS011;35569;48.402;10.670;2023-06-22T01:25:01;5.10;;;4.80;;
10489;SDS011;35569;48.402;10.670;2023-06-22T01:25:43;4.90;;;4.60;;
10489;SDS011;35569;48.402;10.670;2023-06-22T01:26:18;5.20;;;5.00;;
10489;SDS011;35569;48.402;10.670;2023-06-22T01:27:00;4.90;;;4.70;;
10489;SDS011;35569;48.402;10.670;2023-06-22T01:27:46;5.50;;;5.10;;
10489;SDS011;35569;48.402;10.670;2023-06-22T01:28:45;5.00;;;4.80;;
10489;SDS011;35569;48.402;10.670;2023-06-22T01:29:18;5.43;;;5.23;;
10489;SDS011;35569;48.402;10.670;2023-06-22T01:29:55;5.17;;;4.77;;
10489;SDS011;35569;48.402;10.670;2023-06-22T01:30:32;5.13;;;4.73;;
10489;SDS011;35569;48.402;10.670;2023-06-22T01:31:08;7.53;;;6.77;;
10489;SDS011;35569;48.402;10.670;2023-06-22T01:31:41;5.70;;;5.30;;
10489;SDS011;35569;48.402;10.670;2023-06-22T01:32:17;5.30;;;5.00;;
10489;SDS011;35569;48.402;10.670;2023-06-22T01:32:50;6.30;;;5.70;;
10489;SDS011;35569;48.402;10.670;2023-06-22T01:33:23;5.60;;;5.30;;
10489;SDS011;35569;48.402;10.670;2023-06-22T01:33:58;5.03;;;4.70;;
10489;SDS011;35569;48.402;10.670;2023-06-22T01:34:33;5.30;;;4.97;;
10489;SDS011;35569;48.402;10.670;2023-06-22T01:35:09;5.10;;;4.80;;
10489;SDS011;35569;48.402;10.670;2023-06-22T01:35:42;5.20;;;4.50;;
10489;SDS011;35569;48.402;10.670;2023-06-22T01:36:16;4.80;;;4.60;;
10489;SDS011;35569;48.402;10.670;2023-06-22T01:36:50;4.87;;;4.53;;
10489;SDS011;35569;48.402;10.670;2023-06-22T01:37:26;4.67;;;4.47;;
10489;SDS011;35569;48.402;10.670;2023-06-22T01:37:59;5.17;;;4.90;;
10489;SDS011;35569;48.402;10.670;2023-06-22T01:38:32;5.40;;;5.10;;
10489;SDS011;35569;48.402;10.670;2023-06-22T01:39:08;4.73;;;4.53;;
10489;SDS011;35569;48.402;10.670;2023-06-22T01:39:41;4.27;;;4.17;;
10489;SDS011;35569;48.402;10.670;2023-06-22T01:40:14;4.90;;;4.70;;
10489;SDS011;35569;48.402;10.670;2023-06-22T01:40:49;4.90;;;4.70;;
10489;SDS011;35569;48.402;10.670;2023-06-22T01:41:24;5.23;;;4.83;;
10489;SDS011;35569;48.402;10.670;2023-06-22T01:41:57;4.60;;;4.50;;
10489;SDS011;35569;48.402;10.670;2023-06-22T01:42:33;5.20;;;4.90;;
10489;SDS011;35569;48.402;10.670;2023-06-22T01:43:06;6.47;;;5.97;;
10489;SDS011;35569;48.402;10.670;2023-06-22T01:43:40;5.83;;;5.53;;
10489;SDS011;35569;48.402;10.670;2023-06-22T01:44:15;6.40;;;6.00;;
10489;SDS011;35569;48.402;10.670;2023-06-22T01:44:50;7.13;;;6.53;;
10489;SDS011;35569;48.402;10.670;2023-06-22T01:45:23;6.80;;;6.40;;
10489;SDS011;35569;48.402;10.670;2023-06-22T01:45:57;7.13;;;6.70;;
10489;SDS011;35569;48.402;10.670;2023-06-22T01:46:33;8.40;;;7.67;;
10489;SDS011;35569;48.402;10.670;2023-06-22T01:47:06;7.90;;;7.30;;
10489;SDS011;35569;48.402;10.670;2023-06-22T01:47:40;7.77;;;7.17;;
10489;SDS011;35569;48.402;10.670;2023-06-22T01:48:15;9.07;;;8.20;;
10489;SDS011;35569;48.402;10.670;2023-06-22T01:48:48;8.50;;;7.70;;
10489;SDS011;35569;48.402;10.670;2023-06-22T01:49:20;7.57;;;6.70;;
10489;SDS011;35569;48.402;10.670;2023-06-22T01:49:56;10.23;;;8.17;;
10489;SDS011;35569;48.402;10.670;2023-06-22T01:50:28;7.60;;;7.03;;
10489;SDS011;35569;48.402;10.670;2023-06-22T01:51:01;9.03;;;7.40;;
10489;SDS011;35569;48.402;10.670;2023-06-22T01:51:37;6.03;;;5.53;;
10489;SDS011;35569;48.402;10.670;2023-06-22T01:52:09;5.40;;;5.07;;
10489;SDS011;35569;48.402;10.670;2023-06-22T01:52:42;5.80;;;5.40;;
10489;SDS011;35569;48.402;10.670;2023-06-22T01:53:17;5.77;;;5.40;;
10489;SDS011;35569;48.402;10.670;2023-06-22T01:53:49;5.43;;;5.23;;
10489;SDS011;35569;48.402;10.670;2023-06-22T01:54:23;6.00;;;5.50;;
10489;SDS011;35569;48.402;10.670;2023-06-22T01:54:58;6.23;;;5.80;;
10489;SDS011;35569;48.402;10.670;2023-06-22T01:55:30;5.13;;;4.93;;
10489;SDS011;35569;48.402;10.670;2023-06-22T01:56:03;4.80;;;4.60;;
10489;SDS011;35569;48.402;10.670;2023-06-22T01:56:38;5.47;;;5.00;;
10489;SDS011;35569;48.402;10.670;2023-06-22T01:57:12;5.40;;;5.17;;
10489;SDS011;35569;48.402;10.670;2023-06-22T01:57:45;6.30;;;5.50;;
10489;SDS011;35569;48.402;10.670;2023-06-22T01:58:20;5.30;;;5.00;;
10489;SDS011;35569;48.402;10.670;2023-06-22T01:58:55;8.20;;;5.03;;
10489;SDS011;35569;48.402;10.670;2023-06-22T01:59:34;5.17;;;4.93;;
10489;SDS011;35569;48.402;10.670;2023-06-22T02:00:14;5.80;;;5.50;;
10489;SDS011;35569;48.402;10.670;2023-06-22T02:00:52;6.57;;;5.97;;
10489;SDS011;35569;48.402;10.670;2023-06-22T02:01:28;5.33;;;4.90;;
10489;SDS011;35569;48.402;10.670;2023-06-22T02:02:07;5.80;;;5.40;;
10489;SDS011;35569;48.402;10.670;2023-06-22T02:02:43;5.93;;;5.53;;
10489;SDS011;35569;48.402;10.670;2023-06-22T02:03:17;5.53;;;5.27;;
10489;SDS011;35569;48.402;10.670;2023-06-22T02:03:57;5.63;;;5.30;;
10489;SDS011;35569;48.402;10.670;2023-06-22T02:04:36;5.10;;;4.90;;
10489;SDS011;35569;48.402;10.670;2023-06-22T02:05:17;4.83;;;4.63;;
10489;SDS011;35569;48.402;10.670;2023-06-22T02:05:53;5.40;;;5.10;;
10489;SDS011;35569;48.402;10.670;2023-06-22T02:06:29;5.40;;;5.10;;
10489;SDS011;35569;48.402;10.670;2023-06-22T02:07:09;4.80;;;4.50;;
10489;SDS011;35569;48.402;10.670;2023-06-22T02:07:44;5.30;;;4.93;;
10489;SDS011;35569;48.402;10.670;2023-06-22T02:08:19;5.10;;;4.80;;
10489;SDS011;35569;48.402;10.670;2023-06-22T02:08:57;5.60;;;5.10;;
10489;SDS011;35569;48.402;10.670;2023-06-22T02:09:31;5.50;;;5.10;;
10489;SDS011;35569;48.402;10.670;2023-06-22T02:10:05;5.17;;;4.97;;
10489;SDS011;35569;48.402;10.670;2023-06-22T02:10:44;5.47;;;5.07;;
10489;SDS011;35569;48.402;10.670;2023-06-22T02:11:18;5.00;;;4.70;;
10489;SDS011;35569;48.402;10.670;2023-06-22T02:11:55;5.17;;;4.87;;
10489;SDS011;35569;48.402;10.670;2023-06-22T02:12:28;5.00;;;4.70;;
10489;SDS011;35569;48.402;10.670;2023-06-22T02:13:01;5.10;;;4.90;;
10489;SDS011;35569;48.402;10.670;2023-06-22T02:13:38;4.37;;;4.17;;
10489;SDS011;35569;48.402;10.670;2023-06-22T02:14:14;5.00;;;4.80;;
10489;SDS011;35569;48.402;10.670;2023-06-22T02:14:53;4.77;;;4.57;;
10489;SDS011;35569;48.402;10.670;2023-06-22T02:15:28;5.10;;;4.80;;
10489;SDS011;35569;48.402;10.670;2023-06-22T02:16:01;4.57;;;4.37;;
10489;SDS011;35569;48.402;10.670;2023-06-22T02:16:33;4.80;;;4.60;;
10489;SDS011;35569;48.402;10.670;2023-06-22T02:17:08;5.53;;;5.10;;
10489;SDS011;35569;48.402;10.670;2023-06-22T02:17:43;5.23;;;4.93;;
10489;SDS011;35569;48.402;10.670;2023-06-22T02:18:17;5.63;;;5.33;;
10489;SDS011;35569;48.402;10.670;2023-06-22T02:18:50;5.27;;;5.07;;
10489;SDS011;35569;48.402;10.670;2023-06-22T02:19:26;5.87;;;5.50;;
10489;SDS011;35569;48.402;10.670;2023-06-22T02:19:58;5.10;;;4.90;;
10489;SDS011;35569;48.402;10.670;2023-06-22T02:20:31;5.30;;;5.00;;
10489;SDS011;35569;48.402;10.670;2023-06-22T02:21:06;4.83;;;4.63;;
10489;SDS011;35569;48.402;10.670;2023-06-22T02:21:39;5.10;;;4.80;;
10489;SDS011;35569;48.402;10.670;2023-06-22T02:22:11;6.00;;;5.43;;
10489;SDS011;35569;48.402;10.670;2023-06-22T02:22:48;4.80;;;4.63;;
10489;SDS011;35569;48.402;10.670;2023-06-22T02:23:20;7.30;;;4.87;;
10489;SDS011;35569;48.402;10.670;2023-06-22T02:23:53;5.10;;;4.90;;
10489;SDS011;35569;48.402;10.670;2023-06-22T02:24:28;6.03;;;5.73;;
10489;SDS011;35569;48.402;10.670;2023-06-22T02:25:03;6.27;;;5.97;;
10489;SDS011;35569;48.402;10.670;2023-06-22T02:25:38;5.50;;;5.27;;
10489;SDS011;35569;48.402;10.670;2023-06-22T02:26:11;5.20;;;5.00;;
10489;SDS011;35569;48.402;10.670;2023-06-22T02:26:44;5.30;;;5.00;;
10489;SDS011;35569;48.402;10.670;2023-06-22T02:27:19;5.10;;;4.80;;
10489;SDS011;35569;48.402;10.670;2023-06-22T02:27:52;4.87;;;4.67;;
10489;SDS011;35569;48.402;10.670;2023-06-22T02:28:25;5.80;;;5.40;;
10489;SDS011;35569;48.402;10.670;2023-06-22T02:29:00;5.73;;;5.33;;
10489;SDS011;35569;48.402;10.670;2023-06-22T02:29:33;5.30;;;5.00;;
10489;SDS011;35569;48.402;10.670;2023-06-22T02:30:09;5.03;;;4.73;;
10489;SDS011;35569;48.402;10.670;2023-06-22T02:30:46;4.90;;;4.60;;
10489;SDS011;35569;48.402;10.670;2023-06-22T02:31:19;6.50;;;6.00;;
10489;SDS011;35569;48.402;10.670;2023-06-22T02:31:52;5.43;;;5.13;;
10489;SDS011;35569;48.402;10.670;2023-06-22T02:32:27;5.50;;;5.20;;
10489;SDS011;35569;48.402;10.670;2023-06-22T02:32:59;5.37;;;4.97;;
10489;SDS011;35569;48.402;10.670;2023-06-22T02:33:50;5.40;;;5.00;;
10489;SDS011;35569;48.402;10.670;2023-06-22T02:34:44;4.60;;;4.47;;
10489;SDS011;35569;48.402;10.670;2023-06-22T02:35:39;5.90;;;5.50;;
10489;SDS011;35569;48.402;10.670;2023-06-22T02:36:37;5.67;;;5.37;;
10489;SDS011;35569;48.402;10.670;2023-06-22T02:37:29;4.73;;;4.47;;
10489;SDS011;35569;48.402;10.670;2023-06-22T02:38:24;5.10;;;4.80;;
10489;SDS011;35569;48.402;10.670;2023-06-22T02:39:18;5.20;;;4.83;;
10489;SDS011;35569;48.402;10.670;2023-06-22T02:40:14;9.20;;;5.00;;
10489;SDS011;35569;48.402;10.670;2023-06-22T02:41:07;5.60;;;5.20;;
10489;SDS011;35569;48.402;10.670;2023-06-22T02:42:05;5.20;;;4.90;;
10489;SDS011;35569;48.402;10.670;2023-06-22T02:42:58;5.07;;;4.83;;
10489;SDS011;35569;48.402;10.670;2023-06-22T02:43:55;5.40;;;4.93;;
10489;SDS011;35569;48.402;10.670;2023-06-22T02:44:47;5.77;;;5.47;;
10489;SDS011;35569;48.402;10.670;2023-06-22T02:45:47;5.23;;;4.83;;
10489;SDS011;35569;48.402;10.670;2023-06-22T02:46:20;4.40;;;4.30;;
10489;SDS011;35569;48.402;10.670;2023-06-22T02:46:56;5.13;;;4.87;;
10489;SDS011;35569;48.402;10.670;2023-06-22T02:47:29;4.63;;;4.30;;
10489;SDS011;35569;48.402;10.670;2023-06-22T02:48:02;5.60;;;5.20;;
10489;SDS011;35569;48.402;10.670;2023-06-22T02:48:38;6.20;;;5.80;;
10489;SDS011;35569;48.402;10.670;2023-06-22T02:49:11;5.53;;;5.23;;
10489;SDS011;35569;48.402;10.670;2023-06-22T02:49:43;7.63;;;4.97;;
10489;SDS011;35569;48.402;10.670;2023-06-22T02:50:20;5.53;;;5.10;;
10489;SDS011;35569;48.402;10.670;2023-06-22T02:50:53;5.40;;;5.00;;
10489;SDS011;35569;48.402;10.670;2023-06-22T02:51:25;5.10;;;4.70;;
10489;SDS011;35569;48.402;10.670;2023-06-22T02:52:00;5.10;;;4.87;;
10489;SDS011;35569;48.402;10.670;2023-06-22T02:52:33;5.90;;;5.30;;
10489;SDS011;35569;48.402;10.670;2023-06-22T02:53:06;5.50;;;5.03;;
10489;SDS011;35569;48.402;10.670;2023-06-22T02:53:46;5.47;;;5.10;;
10489;SDS011;35569;48.402;10.670;2023-06-22T02:54:20;5.30;;;5.00;;
10489;SDS011;35569;48.402;10.670;2023-06-22T02:54:55;5.00;;;4.80;;
10489;SDS011;35569;48.402;10.670;2023-06-22T02:55:31;5.93;;;5.50;;
10489;SDS011;35569;48.402;10.670;2023-06-22T02:56:04;5.60;;;5.30;;
10489;SDS011;35569;48.402;10.670;2023-06-22T02:56:40;5.30;;;5.10;;
10489;SDS011;35569;48.402;10.670;2023-06-22T02:57:15;5.10;;;4.90;;
10489;SDS011;35569;48.402;10.670;2023-06-22T02:57:48;5.27;;;5.07;;
10489;SDS011;35569;48.402;10.670;2023-06-22T02:58:24;4.70;;;4.50;;
10489;SDS011;35569;48.402;10.670;2023-06-22T02:58:59;5.03;;;4.73;;
10489;SDS011;35569;48.402;10.670;2023-06-22T02:59:38;4.97;;;4.77;;
10489;SDS011;35569;48.402;10.670;2023-06-22T03:00:15;5.03;;;4.87;;
10489;SDS011;35569;48.402;10.670;2023-06-22T03:00:56;5.10;;;4.70;;
10489;SDS011;35569;48.402;10.670;2023-06-22T03:01:28;4.87;;;4.77;;
10489;SDS011;35569;48.402;10.670;2023-06-22T03:02:03;5.50;;;5.13;;
10489;SDS011;35569;48.402;10.670;2023-06-22T03:02:39;6.07;;;5.37;;
10489;SDS011;35569;48.402;10.670;2023-06-22T03:03:12;5.07;;;4.80;;
10489;SDS011;35569;48.402;10.670;2023-06-22T03:03:46;5.20;;;5.00;;
10489;SDS011;35569;48.402;10.670;2023-06-22T03:04:23;5.03;;;4.73;;
10489;SDS011;35569;48.402;10.670;2023-06-22T03:04:59;5.90;;;5.40;;
10489;SDS011;35569;48.402;10.670;2023-06-22T03:05:33;5.30;;;5.00;;
10489;SDS011;35569;48.402;10.670;2023-06-22T03:06:08;5.27;;;4.97;;
10489;SDS011;35569;48.402;10.670;2023-06-22T03:06:46;5.60;;;4.77;;
10489;SDS011;35569;48.402;10.670;2023-06-22T03:07:23;5.70;;;5.40;;
10489;SDS011;35569;48.402;10.670;2023-06-22T03:08:00;5.03;;;4.73;;
10489;SDS011;35569;48.402;10.670;2023-06-22T03:08:37;5.73;;;5.20;;
10489;SDS011;35569;48.402;10.670;2023-06-22T03:09:09;4.93;;;4.73;;
10489;SDS011;35569;48.402;10.670;2023-06-22T03:09:44;5.90;;;5.60;;
10489;SDS011;35569;48.402;10.670;2023-06-22T03:10:17;5.17;;;4.77;;
10489;SDS011;35569;48.402;10.670;2023-06-22T03:10:56;5.23;;;4.83;;
10489;SDS011;35569;48.402;10.670;2023-06-22T03:11:31;5.93;;;5.37;;
10489;SDS011;35569;48.402;10.670;2023-06-22T03:12:05;4.83;;;4.60;;
10489;SDS011;35569;48.402;10.670;2023-06-22T03:12:46;5.90;;;5.60;;
10489;SDS011;35569;48.402;10.670;2023-06-22T03:13:21;5.63;;;5.23;;
10489;SDS011;35569;48.402;10.670;2023-06-22T03:13:54;5.17;;;4.87;;
10489;SDS011;35569;48.402;10.670;2023-06-22T03:14:30;4.63;;;4.30;;
10489;SDS011;35569;48.402;10.670;2023-06-22T03:15:07;5.00;;;4.77;;
10489;SDS011;35569;48.402;10.670;2023-06-22T03:15:41;4.87;;;4.60;;
10489;SDS011;35569;48.402;10.670;2023-06-22T03:16:17;5.20;;;5.00;;
10489;SDS011;35569;48.402;10.670;2023-06-22T03:16:52;5.37;;;4.97;;
10489;SDS011;35569;48.402;10.670;2023-06-22T03:17:25;5.70;;;5.40;;
10489;SDS011;35569;48.402;10.670;2023-06-22T03:17:59;6.03;;;5.67;;
10489;SDS011;35569;48.402;10.670;2023-06-22T03:18:35;7.00;;;6.50;;
10489;SDS011;35569;48.402;10.670;2023-06-22T03:19:07;6.70;;;6.17;;
10489;SDS011;35569;48.402;10.670;2023-06-22T03:19:41;5.50;;;5.20;;
10489;SDS011;35569;48.402;10.670;2023-06-22T03:20:23;6.17;;;5.77;;
10489;SDS011;35569;48.402;10.670;2023-06-22T03:20:57;6.53;;;6.13;;
10489;SDS011;35569;48.402;10.670;2023-06-22T03:21:29;5.10;;;4.80;;
10489;SDS011;35569;48.402;10.670;2023-06-22T03:22:05;4.60;;;4.37;;
10489;SDS011;35569;48.402;10.670;2023-06-22T03:22:39;6.00;;;5.60;;
10489;SDS011;35569;48.402;10.670;2023-06-22T03:23:17;6.50;;;5.90;;
10489;SDS011;35569;48.402;10.670;2023-06-22T03:23:54;6.50;;;5.27;;
10489;SDS011;35569;48.402;10.670;2023-06-22T03:24:27;5.60;;;5.20;;
10489;SDS011;35569;48.402;10.670;2023-06-22T03:25:01;5.97;;;5.47;;
10489;SDS011;35569;48.402;10.670;2023-06-22T03:25:43;5.60;;;5.30;;
10489;SDS011;35569;48.402;10.670;2023-06-22T03:26:17;5.83;;;5.50;;
10489;SDS011;35569;48.402;10.670;2023-06-22T03:26:52;5.50;;;5.20;;
10489;SDS011;35569;48.402;10.670;2023-06-22T03:27:30;8.50;;;5.27;;
10489;SDS011;35569;48.402;10.670;2023-06-22T03:28:04;5.83;;;5.43;;
10489;SDS011;35569;48.402;10.670;2023-06-22T03:28:38;5.40;;;5.20;;
10489;SDS011;35569;48.402;10.670;2023-06-22T03:29:20;5.83;;;5.50;;
10489;SDS011;35569;48.402;10.670;2023-06-22T03:29:56;6.03;;;5.60;;
10489;SDS011;35569;48.402;10.670;2023-06-22T03:30:29;6.00;;;5.60;;
10489;SDS011;35569;48.402;10.670;2023-06-22T03:31:09;6.27;;;5.77;;
10489;SDS011;35569;48.402;10.670;2023-06-22T03:31:46;5.90;;;5.60;;
10489;SDS011;35569;48.402;10.670;2023-06-22T03:32:19;6.23;;;5.60;;
10489;SDS011;35569;48.402;10.670;2023-06-22T03:32:54;6.20;;;5.80;;
10489;SDS011;35569;48.402;10.670;2023-06-22T03:33:27;5.57;;;5.27;;